Time;durP1;ratioP1;P1;durP2;ratioP2;P2;SDS_P1;SDS_P2;PMS_P1;PMS_P2;Temp;Humidity;BMP_temperature;BMP_pressure;BME280_temperature;BME280_humidity;BME280_pressure;Samples;Min_cycle;Max_cycle;Signal;HPM_P1;HPM_P2
2023/05/23 00:02:19;;;;;;;28.73;25.87;;;19.20;99.90;;;;;;10482255;28;20330;-87
2023/05/23 00:07:22;;;;;;;33.30;25.90;;;19.20;99.90;;;;;;10485457;28;20197;-87
2023/05/23 00:12:24;;;;;;;36.90;29.17;;;19.20;99.90;;;;;;10482827;28;20259;-86
2023/05/23 00:17:27;;;;;;;32.63;27.27;;;19.20;99.90;;;;;;10512507;28;20200;-86
2023/05/23 00:22:30;;;;;;;44.07;33.60;;;19.20;99.90;;;;;;10482426;28;20217;-86
2023/05/23 00:27:32;;;;;;;25.67;22.30;;;19.20;99.90;;;;;;10481945;28;20225;-86
2023/05/23 00:32:35;;;;;;;44.07;32.23;;;19.20;99.90;;;;;;10465353;28;20753;-86
2023/05/23 00:37:39;;;;;;;38.50;32.60;;;19.30;99.90;;;;;;10464751;28;20209;-86
2023/05/23 00:42:41;;;;;;;44.17;34.40;;;19.30;99.90;;;;;;10480680;28;20243;-86
2023/05/23 00:47:44;;;;;;;42.80;33.60;;;19.30;99.90;;;;;;10481158;28;20197;-86
2023/05/23 00:52:49;;;;;;;42.57;33.87;;;19.30;99.90;;;;;;10464298;28;20700;-87
2023/05/23 00:57:54;;;;;;;44.97;36.77;;;19.40;99.90;;;;;;10480001;28;20189;-86
2023/05/23 01:02:56;;;;;;;45.10;36.50;;;19.40;99.90;;;;;;10476004;28;20213;-87
2023/05/23 01:08:02;;;;;;;44.80;36.37;;;19.40;99.90;;;;;;10463682;28;20629;-87
2023/05/23 01:13:16;;;;;;;51.93;36.70;;;19.40;99.90;;;;;;10487601;28;20209;-85
2023/05/23 01:18:24;;;;;;;42.77;34.37;;;19.40;99.90;;;;;;10465342;28;20201;-85
2023/05/23 01:23:54;;;;;;;54.10;39.47;;;19.40;99.90;;;;;;10465829;28;20658;-85
2023/05/23 01:29:08;;;;;;;57.80;43.33;;;19.40;99.90;;;;;;10463856;28;20228;-85
2023/05/23 01:34:13;;;;;;;48.60;39.07;;;19.40;99.90;;;;;;10464651;28;20284;-85
2023/05/23 01:39:17;;;;;;;46.23;37.87;;;19.40;99.90;;;;;;10463762;28;20232;-85
2023/05/23 01:44:23;;;;;;;53.93;41.70;;;19.40;99.90;;;;;;10463850;28;20699;-85
2023/05/23 01:49:26;;;;;;;57.00;44.57;;;19.40;99.90;;;;;;10463732;28;20688;-85
2023/05/23 01:54:29;;;;;;;57.73;45.50;;;19.40;99.90;;;;;;10462517;28;20197;-85
2023/05/23 01:59:33;;;;;;;64.27;46.60;;;19.30;99.90;;;;;;10463540;28;20217;-85
2023/05/23 02:04:35;;;;;;;53.30;42.07;;;19.30;99.90;;;;;;10463621;28;20613;-85
2023/05/23 02:09:38;;;;;;;58.63;46.63;;;19.20;99.90;;;;;;10462707;28;20299;-85
2023/05/23 02:14:42;;;;;;;60.67;47.37;;;19.20;99.90;;;;;;10478983;28;20243;-85
2023/05/23 02:19:44;;;;;;;66.97;48.50;;;19.20;99.90;;;;;;10461348;28;20899;-85
2023/05/23 02:24:49;;;;;;;61.03;47.40;;;19.10;99.90;;;;;;10462437;28;20197;-85
2023/05/23 02:29:52;;;;;;;68.67;50.10;;;19.10;99.90;;;;;;10465595;28;20749;-85
2023/05/23 02:34:55;;;;;;;74.63;56.17;;;19.00;99.90;;;;;;10480892;28;20205;-85
2023/05/23 02:39:57;;;;;;;76.40;54.27;;;19.00;99.90;;;;;;10528861;28;20236;-87
2023/05/23 02:45:01;;;;;;;72.33;54.00;;;19.00;99.90;;;;;;10525125;28;20189;-86
2023/05/23 02:50:03;;;;;;;65.50;51.17;;;19.00;99.90;;;;;;10478029;28;20225;-86
2023/05/23 02:55:07;;;;;;;71.30;51.90;;;18.90;99.90;;;;;;10476295;28;20223;-85
2023/05/23 03:00:17;;;;;;;67.67;54.10;;;18.90;99.90;;;;;;10493819;28;20228;-86
2023/05/23 03:05:24;;;;;;;63.47;50.40;;;19.00;99.90;;;;;;10500548;28;20610;-85
2023/05/23 03:10:26;;;;;;;58.80;47.87;;;19.00;99.90;;;;;;10498721;28;20243;-86
2023/05/23 03:15:30;;;;;;;65.37;50.83;;;19.00;99.90;;;;;;10519415;28;20670;-86
2023/05/23 03:20:33;;;;;;;60.57;49.83;;;19.00;99.90;;;;;;10494389;28;20225;-85
2023/05/23 03:25:35;;;;;;;62.90;51.57;;;19.00;99.90;;;;;;10498739;28;20197;-85
2023/05/23 03:30:38;;;;;;;57.33;47.80;;;19.10;99.90;;;;;;10502960;28;20224;-85
2023/05/23 03:35:40;;;;;;;52.47;46.33;;;19.10;99.90;;;;;;10509434;28;20201;-84
2023/05/23 03:40:42;;;;;;;61.07;47.47;;;19.10;99.90;;;;;;10517818;28;20255;-85
2023/05/23 03:45:46;;;;;;;57.20;44.33;;;19.10;99.90;;;;;;10521747;28;20201;-84
2023/05/23 04:39:08;;;;;;;46.60;41.60;;;19.10;99.90;;;;;;10489458;28;20232;-86
2023/05/23 04:44:17;;;;;;;47.27;42.17;;;19.10;99.90;;;;;;10481544;28;20194;-88
2023/05/23 04:49:25;;;;;;;51.60;43.10;;;19.10;99.90;;;;;;10454623;28;20592;-87
2023/05/23 04:54:30;;;;;;;44.17;39.50;;;19.10;99.90;;;;;;10481748;28;20196;-87
2023/05/23 04:59:34;;;;;;;47.00;41.83;;;19.10;99.90;;;;;;10456576;28;20606;-87
2023/05/23 05:04:41;;;;;;;47.80;40.60;;;19.10;99.90;;;;;;10470953;28;20266;-88
2023/05/23 05:09:48;;;;;;;44.10;39.50;;;19.10;99.90;;;;;;10502437;28;20221;-88
2023/05/23 05:14:52;;;;;;;45.63;40.70;;;19.10;99.90;;;;;;10478102;28;20194;-87
2023/05/23 05:19:55;;;;;;;44.90;40.33;;;19.20;99.90;;;;;;10456760;28;20596;-87
2023/05/23 05:25:05;;;;;;;43.40;37.83;;;19.20;99.90;;;;;;10479225;28;20681;-87
2023/05/23 05:30:10;;;;;;;46.60;41.27;;;19.20;99.90;;;;;;10462415;28;20574;-88
2023/05/23 05:35:26;;;;;;;46.13;41.40;;;19.20;99.90;;;;;;10460048;28;20201;-88
2023/05/23 05:40:30;;;;;;;42.43;38.23;;;19.20;99.90;;;;;;10460228;28;20302;-87
2023/05/23 05:45:33;;;;;;;43.80;39.23;;;19.20;99.90;;;;;;10455038;28;20202;-87
2023/05/23 05:50:35;;;;;;;44.83;38.93;;;19.20;99.90;;;;;;10451913;28;20272;-87
2023/05/23 05:55:39;;;;;;;44.40;39.87;;;19.20;99.90;;;;;;10474703;28;20259;-87
2023/05/23 06:00:42;;;;;;;44.27;39.57;;;19.20;99.90;;;;;;10476886;28;20225;-87
2023/05/23 06:05:44;;;;;;;45.17;40.50;;;19.30;99.90;;;;;;10453626;28;20326;-87
2023/05/23 06:10:48;;;;;;;43.80;39.10;;;19.30;99.90;;;;;;10460534;28;20248;-87
2023/05/23 06:15:50;;;;;;;45.93;41.33;;;19.30;99.90;;;;;;10479995;28;20576;-87
2023/05/23 06:20:53;;;;;;;44.87;40.17;;;19.40;99.90;;;;;;10483752;28;20247;-86
2023/05/23 06:25:58;;;;;;;43.53;39.13;;;19.40;99.90;;;;;;10503877;28;20255;-87
2023/05/23 06:31:01;;;;;;;48.13;43.20;;;19.50;99.90;;;;;;10486176;28;20285;-86
2023/05/23 06:36:03;;;;;;;44.77;40.30;;;19.50;99.90;;;;;;10492186;28;20213;-86
2023/05/23 06:41:20;;;;;;;45.30;40.77;;;19.60;99.90;;;;;;10497405;28;20225;-87
2023/05/23 06:46:22;;;;;;;46.93;41.97;;;19.60;99.90;;;;;;10464080;28;20204;-87
2023/05/23 06:51:25;;;;;;;45.90;41.17;;;19.60;99.90;;;;;;10480279;28;20264;-87
2023/05/23 06:56:29;;;;;;;43.93;39.53;;;19.60;99.90;;;;;;10465844;28;20683;-87
2023/05/23 07:01:34;;;;;;;43.80;39.37;;;19.60;99.90;;;;;;10484243;28;20222;-87
2023/05/23 07:06:38;;;;;;;40.80;36.93;;;19.50;99.90;;;;;;10473763;28;20262;-88
2023/05/23 07:11:42;;;;;;;41.90;37.47;;;19.40;99.90;;;;;;10471767;28;20240;-87
2023/05/23 07:16:46;;;;;;;41.73;37.53;;;19.40;99.90;;;;;;10461291;28;20208;-88
2023/05/23 07:21:48;;;;;;;39.57;35.53;;;19.40;99.90;;;;;;10461323;28;20229;-88
2023/05/23 07:26:54;;;;;;;40.90;36.90;;;19.30;99.90;;;;;;10463609;28;20207;-88
2023/05/23 07:31:57;;;;;;;37.00;33.20;;;19.30;99.90;;;;;;10478162;28;20218;-88
2023/05/23 07:37:00;;;;;;;31.13;28.13;;;19.30;99.90;;;;;;10481395;28;20213;-88
2023/05/23 07:42:08;;;;;;;32.43;29.17;;;19.30;99.90;;;;;;10458897;28;20213;-88
2023/05/23 07:47:10;;;;;;;33.00;29.27;;;19.30;99.90;;;;;;10458103;28;20547;-88
2023/05/23 07:52:13;;;;;;;34.23;31.07;;;19.30;99.90;;;;;;10462415;28;20213;-88
2023/05/23 07:57:17;;;;;;;38.47;34.80;;;19.30;99.90;;;;;;10468540;28;20209;-87
2023/05/23 08:02:20;;;;;;;37.83;34.10;;;19.30;99.90;;;;;;10469054;28;20229;-87
2023/05/23 08:07:23;;;;;;;33.80;30.70;;;19.30;99.90;;;;;;10480878;28;20251;-87
2023/05/23 08:12:32;;;;;;;28.57;25.87;;;19.30;99.90;;;;;;10488943;28;20244;-87
2023/05/23 08:17:49;;;;;;;27.57;24.97;;;19.30;99.90;;;;;;10483566;28;20296;-87
2023/05/23 08:22:57;;;;;;;27.60;24.90;;;19.30;99.90;;;;;;10443326;28;20229;-88
2023/05/23 08:28:01;;;;;;;26.77;24.17;;;19.20;99.90;;;;;;10490033;28;20208;-88
2023/05/23 08:33:19;;;;;;;26.90;24.40;;;19.20;99.90;;;;;;10467634;28;20217;-88
2023/05/23 08:38:26;;;;;;;25.90;23.40;;;19.20;99.90;;;;;;10465070;28;20201;-87
2023/05/23 08:43:47;;;;;;;24.00;21.80;;;19.10;99.90;;;;;;10465543;28;20225;-87
2023/05/23 08:48:55;;;;;;;25.70;23.20;;;19.10;99.90;;;;;;10465497;28;20210;-88
2023/05/23 08:54:00;;;;;;;23.93;21.93;;;19.10;99.90;;;;;;10465194;28;20585;-88
2023/05/23 08:59:06;;;;;;;24.10;21.80;;;19.10;99.90;;;;;;10465310;28;20201;-88
2023/05/23 09:04:08;;;;;;;24.17;21.97;;;19.10;99.90;;;;;;10461763;28;20225;-88
2023/05/23 09:09:31;;;;;;;23.97;21.77;;;19.10;99.90;;;;;;10464128;28;20635;-88
2023/05/23 09:14:36;;;;;;;25.10;22.60;;;19.10;99.90;;;;;;10482602;28;20373;-89
2023/05/23 09:19:42;;;;;;;24.80;22.47;;;19.10;99.90;;;;;;10464528;28;20241;-88
2023/05/23 09:24:56;;;;;;;22.83;20.73;;;19.10;99.90;;;;;;10463179;28;20212;-88
2023/05/23 09:30:06;;;;;;;21.00;19.00;;;19.20;99.90;;;;;;10463026;28;20579;-88
2023/05/23 09:35:11;;;;;;;22.23;20.13;;;19.20;99.90;;;;;;10474348;28;20569;-88
2023/05/23 09:40:15;;;;;;;20.80;18.80;;;19.20;99.90;;;;;;10504881;28;20216;-88
2023/05/23 09:45:31;;;;;;;19.40;17.50;;;19.30;99.90;;;;;;10477876;28;20197;-88
2023/05/23 09:50:35;;;;;;;18.47;16.87;;;19.30;99.90;;;;;;10477059;22;20328;-85
2023/05/23 09:55:39;;;;;;;19.77;17.97;;;19.40;99.90;;;;;;10489243;28;20562;-85
2023/05/23 10:00:44;;;;;;;19.97;18.13;;;19.60;99.90;;;;;;10479383;28;20217;-85
2023/05/23 10:05:47;;;;;;;17.40;15.80;;;19.70;99.90;;;;;;10444578;28;20248;-85
2023/05/23 10:11:31;;;;;;;16.40;15.00;;;19.70;99.90;;;;;;10460322;28;20248;-85
2023/05/23 10:16:44;;;;;;;16.10;14.67;;;19.70;99.90;;;;;;10477549;28;20291;-85
2023/05/23 10:21:51;;;;;;;15.10;13.77;;;19.80;99.90;;;;;;10453698;28;20225;-85
2023/05/23 10:26:54;;;;;;;14.77;13.57;;;20.00;99.90;;;;;;10428688;28;20198;-85
2023/05/23 10:31:58;;;;;;;15.90;14.40;;;20.30;99.90;;;;;;10468806;28;20220;-85
2023/05/23 10:37:03;;;;;;;13.47;12.20;;;20.60;99.90;;;;;;10431504;28;20665;-85
2023/05/23 10:42:12;;;;;;;12.60;11.60;;;20.70;99.90;;;;;;10442397;28;20275;-85
2023/05/23 10:47:26;;;;;;;11.50;10.50;;;21.00;99.90;;;;;;10468880;28;20207;-86
2023/05/23 10:52:39;;;;;;;12.17;11.17;;;21.20;99.90;;;;;;10425565;28;20226;-85
2023/05/23 10:57:42;;;;;;;13.30;12.20;;;21.20;99.90;;;;;;10454317;28;20647;-85
2023/05/23 11:02:54;;;;;;;12.73;11.50;;;21.10;99.90;;;;;;10443411;28;20287;-85
2023/05/23 11:08:10;;;;;;;12.67;11.50;;;21.00;99.20;;;;;;10424338;28;20194;-86
2023/05/23 11:13:12;;;;;;;13.50;12.00;;;21.10;99.20;;;;;;10490482;28;20266;-85
2023/05/23 11:18:23;;;;;;;11.77;10.77;;;21.10;99.70;;;;;;10422914;28;20620;-85
2023/05/23 11:23:39;;;;;;;10.90;10.00;;;21.00;99.90;;;;;;10444422;28;20222;-85
2023/05/23 11:28:56;;;;;;;11.50;10.60;;;21.00;99.70;;;;;;10482349;28;20310;-85
2023/05/23 11:34:00;;;;;;;9.90;9.00;;;21.10;99.70;;;;;;10435468;28;20254;-85
2023/05/23 11:39:03;;;;;;;11.33;10.43;;;21.10;99.90;;;;;;10443966;28;20198;-85
2023/05/23 11:44:12;;;;;;;12.10;11.17;;;21.20;98.70;;;;;;10429484;28;20275;-85
2023/05/23 11:49:18;;;;;;;12.30;11.20;;;21.20;99.70;;;;;;10426688;28;20285;-85
2023/05/23 11:54:23;;;;;;;12.40;11.30;;;21.10;99.30;;;;;;10466987;28;20287;-86
2023/05/23 11:59:27;;;;;;;13.20;12.00;;;21.00;98.40;;;;;;10426311;28;20209;-85
2023/05/23 12:04:30;;;;;;;12.20;11.17;;;21.20;97.70;;;;;;10458970;28;20571;-86
2023/05/23 12:09:32;;;;;;;11.10;10.20;;;21.40;99.00;;;;;;10425642;28;20213;-86
2023/05/23 12:14:35;;;;;;;11.20;10.20;;;21.70;97.90;;;;;;10426310;28;20194;-86
2023/05/23 12:19:38;;;;;;;14.33;11.10;;;21.90;97.20;;;;;;10465110;28;20271;-85
2023/05/23 12:24:46;;;;;;;11.27;10.37;;;21.90;97.20;;;;;;10471015;28;20240;-86
2023/05/23 12:29:52;;;;;;;9.67;8.87;;;22.00;96.40;;;;;;10443439;28;20221;-86
2023/05/23 12:34:55;;;;;;;10.80;9.97;;;22.00;97.50;;;;;;10465087;28;20206;-86
2023/05/23 12:39:57;;;;;;;9.87;9.07;;;21.80;95.50;;;;;;10452864;28;20422;-86
2023/05/23 12:45:00;;;;;;;9.00;8.30;;;21.70;95.80;;;;;;10482621;28;20221;-86
2023/05/23 12:50:04;;;;;;;9.90;9.00;;;21.70;96.80;;;;;;10439276;28;20222;-87
2023/05/23 12:55:08;;;;;;;9.03;8.33;;;21.80;96.20;;;;;;10463409;28;20679;-85
2023/05/23 13:00:14;;;;;;;9.07;8.37;;;21.80;97.40;;;;;;10462386;28;20223;-86
2023/05/23 13:05:17;;;;;;;9.00;8.10;;;21.80;97.10;;;;;;10453322;28;20206;-87
2023/05/23 13:10:20;;;;;;;8.70;8.10;;;21.80;96.40;;;;;;10476873;28;20692;-87
2023/05/23 13:15:22;;;;;;;9.10;8.20;;;21.70;96.80;;;;;;10478328;28;20612;-87
2023/05/23 13:20:28;;;;;;;8.43;7.63;;;21.60;96.30;;;;;;10442900;28;20311;-87
2023/05/23 13:25:33;;;;;;;8.00;7.50;;;21.70;96.90;;;;;;10424916;28;20210;-87
2023/05/23 13:30:35;;;;;;;7.40;6.17;;;21.70;96.90;;;;;;10477838;28;20248;-87
2023/05/23 13:35:41;;;;;;;7.80;7.20;;;21.60;97.50;;;;;;10442826;28;20469;-87
2023/05/23 13:40:43;;;;;;;7.67;7.07;;;21.60;96.30;;;;;;10422873;28;20237;-87
2023/05/23 13:45:48;;;;;;;7.50;6.90;;;21.40;96.10;;;;;;10460232;28;20201;-86
2023/05/23 13:50:51;;;;;;;6.87;6.27;;;21.20;96.30;;;;;;10425786;28;20229;-85
2023/05/23 13:55:54;;;;;;;6.67;5.90;;;21.10;97.40;;;;;;10458677;28;20236;-85
2023/05/23 14:00:57;;;;;;;7.23;6.33;;;21.10;97.80;;;;;;10462974;28;20218;-87
2023/05/23 14:06:00;;;;;;;6.23;5.80;;;21.20;97.60;;;;;;10447147;28;20673;-86
2023/05/23 14:11:02;;;;;;;5.40;5.10;;;21.40;98.60;;;;;;10425290;28;20325;-86
2023/05/23 14:16:05;;;;;;;6.50;5.60;;;21.50;96.90;;;;;;10437258;28;20306;-86
2023/05/23 14:21:08;;;;;;;5.57;5.07;;;21.60;96.60;;;;;;10437969;28;20309;-86
2023/05/23 14:26:10;;;;;;;6.77;6.27;;;21.60;97.00;;;;;;10437453;28;20201;-85
2023/05/23 14:31:12;;;;;;;6.33;5.83;;;21.60;96.10;;;;;;10476294;28;20206;-85
2023/05/23 14:36:16;;;;;;;6.30;5.80;;;21.60;97.70;;;;;;10466809;28;20233;-86
2023/05/23 14:41:22;;;;;;;8.10;6.57;;;21.60;97.20;;;;;;10434986;28;20294;-86
2023/05/23 14:46:24;;;;;;;6.10;5.70;;;21.50;97.60;;;;;;10458985;28;20250;-86
2023/05/23 14:51:27;;;;;;;6.60;6.10;;;21.40;97.80;;;;;;10460354;28;20229;-86
2023/05/23 14:56:29;;;;;;;6.50;6.00;;;21.40;97.20;;;;;;10456451;28;20205;-86
2023/05/23 15:01:32;;;;;;;6.20;5.80;;;21.30;97.70;;;;;;10426921;28;20218;-86
2023/05/23 15:06:35;;;;;;;6.63;6.13;;;21.30;97.90;;;;;;10448632;28;20205;-86
2023/05/23 15:11:39;;;;;;;6.27;5.87;;;21.30;96.70;;;;;;10443823;28;20214;-86
2023/05/23 15:16:43;;;;;;;5.60;5.30;;;21.20;98.30;;;;;;10434665;28;20260;-86
2023/05/23 15:21:48;;;;;;;6.20;5.80;;;21.20;97.30;;;;;;10467425;28;20276;-86
2023/05/23 15:26:51;;;;;;;5.33;5.03;;;21.00;97.00;;;;;;10452321;28;20276;-86
2023/05/23 15:31:53;;;;;;;6.30;5.87;;;21.00;97.50;;;;;;10419172;28;20249;-86
2023/05/23 15:36:56;;;;;;;4.80;4.40;;;20.90;95.90;;;;;;10447242;28;20213;-86
2023/05/23 15:41:59;;;;;;;5.43;5.07;;;20.90;95.00;;;;;;10449831;28;20229;-85
2023/05/23 15:47:01;;;;;;;6.77;6.17;;;20.90;95.10;;;;;;10447258;28;20586;-87
2023/05/23 15:52:05;;;;;;;6.77;6.13;;;20.80;97.10;;;;;;10447232;28;20234;-86
2023/05/23 15:57:07;;;;;;;6.80;6.30;;;20.80;95.80;;;;;;10481992;28;20193;-85
2023/05/23 16:02:09;;;;;;;6.43;6.03;;;20.70;96.80;;;;;;10495927;28;20233;-86
2023/05/23 16:07:13;;;;;;;6.93;6.43;;;20.60;96.60;;;;;;10451234;28;20193;-86
2023/05/23 16:12:15;;;;;;;7.03;6.53;;;20.50;95.80;;;;;;10435209;28;20225;-86
2023/05/23 16:17:17;;;;;;;7.33;6.83;;;20.40;96.20;;;;;;10445272;28;20555;-86
2023/05/23 16:22:20;;;;;;;8.20;7.60;;;20.40;97.10;;;;;;10474947;28;20692;-86
2023/05/23 16:27:23;;;;;;;10.00;9.10;;;20.30;96.20;;;;;;10464475;28;20227;-86
2023/05/23 16:32:25;;;;;;;9.73;8.83;;;20.30;96.50;;;;;;10470394;28;20275;-86
2023/05/23 16:37:29;;;;;;;9.00;8.20;;;20.20;97.00;;;;;;10440187;28;20236;-85
2023/05/23 16:42:31;;;;;;;8.70;7.93;;;20.20;97.30;;;;;;10461300;28;20312;-87
2023/05/23 16:47:33;;;;;;;8.70;8.00;;;20.10;95.90;;;;;;10460793;28;20206;-86
2023/05/23 16:52:39;;;;;;;10.00;9.20;;;20.10;96.10;;;;;;10468605;28;20271;-86
2023/05/23 16:57:41;;;;;;;10.60;9.57;;;20.00;96.30;;;;;;10465381;28;20200;-86
2023/05/23 17:02:43;;;;;;;12.37;11.27;;;20.00;97.20;;;;;;10458176;28;20304;-85
2023/05/23 17:07:47;;;;;;;11.33;10.00;;;20.00;97.00;;;;;;10476085;28;20766;-86
2023/05/23 17:12:49;;;;;;;9.80;9.00;;;20.00;96.40;;;;;;10465576;28;20304;-86
2023/05/23 17:17:53;;;;;;;9.37;8.60;;;19.80;96.50;;;;;;10499611;28;20216;-86
2023/05/23 17:22:56;;;;;;;9.63;8.83;;;19.80;96.70;;;;;;10481764;28;20221;-86
2023/05/23 17:27:58;;;;;;;9.23;8.53;;;19.80;97.40;;;;;;10463598;28;20275;-85
2023/05/23 17:33:01;;;;;;;9.43;8.50;;;19.70;97.50;;;;;;10477707;28;20306;-85
2023/05/23 17:38:04;;;;;;;9.97;9.07;;;19.70;97.60;;;;;;10442821;28;20292;-85
2023/05/23 17:43:06;;;;;;;7.37;6.87;;;19.70;97.60;;;;;;10442508;28;20232;-86
2023/05/23 17:48:08;;;;;;;8.43;7.23;;;19.70;98.50;;;;;;10451275;28;20265;-87
2023/05/23 17:53:13;;;;;;;6.97;6.47;;;19.70;97.90;;;;;;10439975;28;20325;-85
2023/05/23 17:58:15;;;;;;;6.00;5.60;;;19.70;99.40;;;;;;10478191;28;20285;-85
2023/05/23 18:03:19;;;;;;;5.57;5.13;;;19.80;96.50;;;;;;10456117;28;20208;-86
2023/05/23 18:08:23;;;;;;;5.80;5.40;;;19.70;97.30;;;;;;10460335;28;20201;-86
2023/05/23 18:13:25;;;;;;;9.67;8.87;;;19.70;98.60;;;;;;10455275;28;20229;-86
2023/05/23 18:18:27;;;;;;;6.80;6.30;;;19.70;98.30;;;;;;10459457;28;20207;-86
2023/05/23 18:23:31;;;;;;;6.33;5.90;;;19.70;97.50;;;;;;10455663;28;20322;-85
2023/05/23 18:28:33;;;;;;;7.47;6.70;;;19.70;97.40;;;;;;10439548;28;20681;-85
2023/05/23 18:33:35;;;;;;;7.80;7.20;;;19.60;97.80;;;;;;10451323;28;20584;-86
2023/05/23 18:38:40;;;;;;;8.10;7.33;;;19.60;98.90;;;;;;10430012;28;20229;-87
2023/05/23 18:43:42;;;;;;;7.50;6.83;;;19.50;99.70;;;;;;10441106;28;20221;-86
2023/05/23 18:48:45;;;;;;;7.20;6.70;;;19.50;99.50;;;;;;10459480;28;20201;-85
2023/05/23 18:53:52;;;;;;;7.00;6.53;;;19.50;98.60;;;;;;10443086;28;20609;-85
2023/05/23 18:58:54;;;;;;;6.13;5.67;;;19.40;98.30;;;;;;10439926;28;20563;-86
2023/05/23 19:03:57;;;;;;;5.03;4.73;;;19.40;98.50;;;;;;10455663;28;20631;-86
2023/05/23 19:09:00;;;;;;;4.30;3.97;;;19.40;97.50;;;;;;10438993;28;20311;-86
2023/05/23 19:14:02;;;;;;;5.07;4.77;;;19.30;98.10;;;;;;10457210;28;20217;-86
2023/05/23 19:19:05;;;;;;;3.87;3.67;;;19.30;96.90;;;;;;10419510;28;20240;-87
2023/05/23 19:24:08;;;;;;;5.13;4.40;;;19.20;96.40;;;;;;10442201;28;20256;-86
2023/05/23 19:29:10;;;;;;;4.00;3.80;;;19.20;97.00;;;;;;10455381;28;20201;-87
2023/05/23 19:34:12;;;;;;;5.00;4.67;;;19.10;97.10;;;;;;10441198;28;20217;-86
2023/05/23 19:39:16;;;;;;;4.63;3.93;;;19.10;96.50;;;;;;10418324;28;20633;-87
2023/05/23 19:44:18;;;;;;;5.30;4.90;;;19.10;96.20;;;;;;10429842;28;20221;-87
2023/05/23 19:49:20;;;;;;;5.47;5.07;;;19.00;96.80;;;;;;10452860;28;20275;-86
2023/05/23 19:54:24;;;;;;;5.00;4.70;;;19.00;97.60;;;;;;10441489;28;20288;-87
2023/05/23 19:59:26;;;;;;;4.70;4.30;;;18.90;97.10;;;;;;10466412;28;20573;-87
2023/05/23 20:04:28;;;;;;;4.70;4.40;;;18.90;98.60;;;;;;10467436;28;20233;-85
2023/05/23 20:09:31;;;;;;;4.90;4.60;;;18.90;97.50;;;;;;10458632;28;20350;-85
2023/05/23 20:14:33;;;;;;;5.57;5.17;;;18.90;97.10;;;;;;10463994;28;20193;-84
2023/05/23 20:19:36;;;;;;;4.70;4.30;;;18.90;97.10;;;;;;10465492;28;20225;-84
2023/05/23 20:24:39;;;;;;;5.80;5.30;;;18.80;96.10;;;;;;10514897;28;20229;-84
2023/05/23 20:29:41;;;;;;;4.63;4.33;;;18.70;97.10;;;;;;10490096;28;20216;-86
2023/05/23 20:34:43;;;;;;;5.90;5.50;;;18.70;96.70;;;;;;10474040;28;20565;-85
2023/05/23 20:39:49;;;;;;;5.23;4.83;;;18.60;95.50;;;;;;10455143;28;20292;-85
2023/05/23 20:44:51;;;;;;;5.10;4.80;;;18.60;96.50;;;;;;10464157;28;20225;-82
2023/05/23 20:49:54;;;;;;;5.53;5.13;;;18.50;96.70;;;;;;10456612;28;20237;-84
2023/05/23 20:54:59;;;;;;;4.70;4.40;;;18.50;96.20;;;;;;10458767;28;20581;-83
2023/05/23 21:00:05;;;;;;;4.93;4.50;;;18.50;95.50;;;;;;10463050;28;20217;-85
2023/05/23 21:05:09;;;;;;;4.93;4.60;;;18.40;96.00;;;;;;10442696;28;20225;-84
2023/05/23 21:10:12;;;;;;;5.37;4.90;;;18.40;96.30;;;;;;10443632;28;20282;-83
2023/05/23 21:15:14;;;;;;;5.27;4.87;;;18.30;95.50;;;;;;10472939;28;20223;-85
2023/05/23 21:20:18;;;;;;;4.70;4.40;;;18.20;96.50;;;;;;10451179;28;20640;-85
2023/05/23 21:25:22;;;;;;;4.83;4.47;;;18.10;96.40;;;;;;10493418;28;20589;-85
2023/05/23 21:30:24;;;;;;;5.00;4.50;;;18.10;96.00;;;;;;10486225;28;20210;-85
2023/05/23 21:35:26;;;;;;;4.40;4.10;;;18.00;96.40;;;;;;10460112;28;20243;-85
2023/05/23 21:40:29;;;;;;;4.80;4.50;;;18.00;95.10;;;;;;10451477;28;20242;-85
2023/05/23 21:45:31;;;;;;;5.00;4.60;;;17.90;95.90;;;;;;10432454;28;20693;-84
2023/05/23 21:50:33;;;;;;;5.10;4.70;;;17.80;95.90;;;;;;10459740;28;20712;-85
2023/05/23 21:55:37;;;;;;;5.10;4.70;;;17.80;96.50;;;;;;10468110;28;20194;-85
2023/05/23 22:00:39;;;;;;;4.40;4.10;;;17.70;96.00;;;;;;10426999;28;20237;-85
2023/05/23 22:05:41;;;;;;;5.23;4.83;;;17.60;96.10;;;;;;10439505;28;20229;-83
2023/05/23 22:10:47;;;;;;;4.80;4.50;;;17.50;96.50;;;;;;10463629;28;20245;-84
2023/05/23 22:15:49;;;;;;;4.63;4.33;;;17.40;96.40;;;;;;10435542;28;20201;-85
2023/05/23 22:20:51;;;;;;;4.67;4.30;;;17.40;96.00;;;;;;10480154;28;20213;-85
2023/05/23 22:25:55;;;;;;;5.00;4.70;;;17.40;95.40;;;;;;10452387;28;20300;-85
2023/05/23 22:30:57;;;;;;;4.97;4.53;;;17.30;96.20;;;;;;10430399;28;20669;-85
2023/05/23 22:35:59;;;;;;;5.73;5.07;;;17.30;95.30;;;;;;10459106;28;20197;-84
2023/05/23 22:41:03;;;;;;;4.50;4.10;;;17.30;96.10;;;;;;10452993;28;20254;-85
2023/05/23 22:46:05;;;;;;;5.10;4.70;;;17.20;95.50;;;;;;10427271;28;20304;-85
2023/05/23 22:51:11;;;;;;;5.13;4.83;;;17.20;95.60;;;;;;10469449;28;20655;-85
2023/05/23 22:56:14;;;;;;;4.70;4.40;;;17.20;95.50;;;;;;10432464;28;20198;-85
2023/05/23 23:01:17;;;;;;;5.33;4.90;;;17.20;96.30;;;;;;10442964;28;20218;-85
2023/05/23 23:06:19;;;;;;;5.23;4.80;;;17.20;96.70;;;;;;10462848;28;20217;-85
2023/05/23 23:11:23;;;;;;;5.90;5.40;;;17.20;96.20;;;;;;10453628;28;20662;-86
2023/05/23 23:16:25;;;;;;;5.13;4.63;;;17.20;97.20;;;;;;10441150;28;20200;-85
2023/05/23 23:21:27;;;;;;;5.17;4.50;;;17.20;96.90;;;;;;10434269;28;20217;-85
2023/05/23 23:26:31;;;;;;;9.00;5.47;;;17.20;96.50;;;;;;10462537;28;20236;-85
2023/05/23 23:31:33;;;;;;;7.13;4.77;;;17.20;96.20;;;;;;10432597;28;20757;-84
2023/05/23 23:36:38;;;;;;;5.27;4.87;;;17.10;95.60;;;;;;10444597;28;20289;-85
2023/05/23 23:41:41;;;;;;;5.27;4.77;;;17.10;96.20;;;;;;10479276;28;20225;-85
2023/05/23 23:46:43;;;;;;;4.97;4.50;;;17.10;95.60;;;;;;10447687;28;20585;-84
2023/05/23 23:51:46;;;;;;;5.27;4.77;;;17.00;95.20;;;;;;10429338;28;20221;-85
2023/05/23 23:56:49;;;;;;;5.77;5.37;;;16.90;96.10;;;;;;10464247;28;20198;-85
